createdAt,value
2018-05-01T00:01:32.138Z,90.60
2018-05-01T00:03:59.691Z,90.60
2018-05-01T00:06:27.247Z,90.70
2018-05-01T00:08:54.787Z,90.70
2018-05-01T00:11:22.331Z,90.70
2018-05-01T00:13:49.851Z,90.70
2018-05-01T00:16:18.121Z,90.40
2018-05-01T00:18:46.399Z,90.90
2018-05-01T00:21:13.905Z,90.50
2018-05-01T00:23:41.415Z,90.20
2018-05-01T00:26:08.942Z,90.70
2018-05-01T00:28:36.476Z,90.50
2018-05-01T00:31:03.999Z,90.70
2018-05-01T00:33:31.554Z,90.70
2018-05-01T00:35:59.839Z,90.90
2018-05-01T00:38:27.397Z,90.90
2018-05-01T00:40:54.949Z,90.90
2018-05-01T00:43:23.251Z,91.20
2018-05-01T00:45:50.798Z,91.20
2018-05-01T00:48:18.353Z,91.30
2018-05-01T00:50:45.876Z,91.30
2018-05-01T00:53:13.380Z,91.10
2018-05-01T00:55:40.891Z,91.70
2018-05-01T00:58:10.022Z,91.80
2018-05-01T01:00:38.434Z,91.70
2018-05-01T01:03:05.941Z,91.80
2018-05-01T01:05:33.476Z,91.60
2018-05-01T01:08:01.014Z,91.60
2018-05-01T01:10:28.560Z,92.00
2018-05-01T01:12:56.080Z,91.60
2018-05-01T01:15:23.596Z,92.60
2018-05-01T01:17:51.128Z,91.70
2018-05-01T01:20:18.655Z,92.00
2018-05-01T01:22:46.170Z,92.30
2018-05-01T01:25:13.678Z,92.00
2018-05-01T01:27:41.954Z,92.10
2018-05-01T01:30:10.267Z,91.50
2018-05-01T01:32:37.811Z,91.50
2018-05-01T01:35:17.280Z,91.90
2018-05-01T01:37:56.551Z,92.30
2018-05-01T01:40:36.632Z,92.50
2018-05-01T01:43:16.044Z,92.50
2018-05-01T01:45:56.103Z,92.40
2018-05-01T01:48:35.400Z,92.40
2018-05-01T01:51:14.682Z,92.40
2018-05-01T01:53:54.070Z,92.60
2018-05-01T01:56:33.380Z,92.90
2018-05-01T01:59:12.634Z,93.00
2018-05-01T02:01:52.074Z,93.10
2018-05-01T02:04:31.375Z,94.00
2018-05-01T02:07:10.783Z,93.20
2018-05-01T02:09:50.147Z,93.20
2018-05-01T02:12:29.716Z,93.00
2018-05-01T02:15:08.958Z,92.20
2018-05-01T02:17:48.429Z,92.30
2018-05-01T02:20:28.548Z,91.90
2018-05-01T02:23:07.908Z,91.90
2018-05-01T02:25:48.113Z,92.00
2018-05-01T02:28:27.339Z,92.00
2018-05-01T02:31:06.726Z,93.00
2018-05-01T02:33:46.055Z,92.10
2018-05-01T02:36:25.386Z,91.80
2018-05-01T02:39:04.708Z,91.60
2018-05-01T02:41:44.066Z,91.10
2018-05-01T02:44:23.463Z,92.20
2018-05-01T02:47:02.695Z,91.70
2018-05-01T02:49:42.135Z,92.20
2018-05-01T02:52:21.333Z,92.30
2018-05-01T02:55:00.615Z,91.20
2018-05-01T02:57:39.935Z,93.40
2018-05-01T03:00:19.211Z,92.00
2018-05-01T03:02:58.578Z,92.00
2018-05-01T03:05:37.945Z,92.20
2018-05-01T03:08:17.299Z,92.00
2018-05-01T03:10:56.730Z,94.10
2018-05-01T03:13:36.083Z,95.10
2018-05-01T03:16:16.879Z,94.80
2018-05-01T03:18:56.131Z,94.80
2018-05-01T03:21:35.421Z,92.40
2018-05-01T03:24:14.730Z,92.60
2018-05-01T03:26:53.994Z,93.40
2018-05-01T03:29:34.011Z,92.30
2018-05-01T03:32:13.393Z,92.30
2018-05-01T03:34:52.755Z,93.70
2018-05-01T03:37:32.011Z,92.60
2018-05-01T03:40:11.416Z,93.90
2018-05-01T03:42:50.727Z,95.50
2018-05-01T03:45:30.199Z,95.20
2018-05-01T03:48:09.487Z,93.80
2018-05-01T03:50:48.982Z,95.20
2018-05-01T03:53:28.202Z,94.90
2018-05-01T03:56:07.592Z,95.10
2018-05-01T03:58:46.915Z,95.10
2018-05-01T04:01:26.250Z,95.30
2018-05-01T04:04:05.481Z,94.70
2018-05-01T04:06:44.970Z,95.10
2018-05-01T04:09:24.234Z,94.40
2018-05-01T04:12:03.393Z,95.40
2018-05-01T04:14:42.650Z,94.20
2018-05-01T04:17:22.647Z,94.60
2018-05-01T04:20:02.089Z,94.60
2018-05-01T04:22:41.468Z,94.90
2018-05-01T04:25:20.810Z,95.40
2018-05-01T04:28:00.094Z,94.80
2018-05-01T04:30:39.548Z,94.00
2018-05-01T04:33:18.837Z,93.90
2018-05-01T04:35:58.293Z,94.90
2018-05-01T04:38:37.555Z,94.90
2018-05-01T04:41:16.952Z,94.70
2018-05-01T04:43:56.667Z,95.10
2018-05-01T04:46:36.714Z,94.90
2018-05-01T04:49:15.959Z,94.80
2018-05-01T04:51:56.210Z,94.90
2018-05-01T04:54:35.391Z,94.90
2018-05-01T04:57:14.686Z,94.70
2018-05-01T04:59:54.140Z,95.00
2018-05-01T05:02:33.496Z,94.80
2018-05-01T05:05:12.676Z,95.10
2018-05-01T05:07:52.098Z,95.30
2018-05-01T05:10:31.627Z,95.10
2018-05-01T05:13:10.929Z,95.00
2018-05-01T05:15:50.335Z,96.10
2018-05-01T05:18:30.345Z,95.70
2018-05-01T05:21:10.449Z,96.20
2018-05-01T05:23:50.465Z,96.60
2018-05-01T05:26:29.872Z,96.60
2018-05-01T05:29:09.123Z,96.40
2018-05-01T05:31:48.332Z,96.10
2018-05-01T05:34:27.739Z,96.10
2018-05-01T05:37:07.744Z,95.20
2018-05-01T05:39:47.036Z,95.20
2018-05-01T05:42:26.467Z,96.50
2018-05-01T05:45:05.729Z,97.70
2018-05-01T05:47:45.098Z,95.20
2018-05-01T05:50:24.393Z,95.90
2018-05-01T05:53:04.293Z,95.10
2018-05-01T05:55:43.584Z,96.40
2018-05-01T05:58:22.955Z,96.30
2018-05-01T06:01:02.180Z,96.20
2018-05-01T06:03:41.495Z,96.40
2018-05-01T06:06:20.991Z,96.10
2018-05-01T06:09:00.267Z,95.40
2018-05-01T06:11:39.799Z,95.30
2018-05-01T06:14:19.057Z,95.20
2018-05-01T06:16:58.588Z,95.20
2018-05-01T06:19:37.935Z,95.70
2018-05-01T06:22:17.282Z,96.40
2018-05-01T06:24:57.877Z,94.80
2018-05-01T06:27:37.098Z,94.10
2018-05-01T06:30:16.483Z,93.50
2018-05-01T06:32:55.680Z,94.80
2018-05-01T06:35:35.072Z,93.60
2018-05-01T06:38:14.440Z,92.60
2018-05-01T06:40:53.856Z,94.00
2018-05-01T06:43:33.272Z,93.90
2018-05-01T06:46:12.565Z,93.50
2018-05-01T06:48:52.003Z,93.10
2018-05-01T06:51:31.278Z,94.00
2018-05-01T06:54:12.108Z,94.60
2018-05-01T06:56:51.532Z,94.60
2018-05-01T06:59:31.078Z,93.50
2018-05-01T07:02:10.350Z,93.40
2018-05-01T07:04:49.623Z,93.50
2018-05-01T07:07:28.998Z,93.90
2018-05-01T07:10:08.239Z,93.40
2018-05-01T07:12:47.643Z,93.60
2018-05-01T07:15:26.905Z,93.30
2018-05-01T07:18:06.958Z,93.30
2018-05-01T07:20:46.345Z,94.70
2018-05-01T07:23:25.570Z,94.90
2018-05-01T07:26:04.948Z,94.10
2018-05-01T07:28:44.313Z,94.40
2018-05-01T07:31:23.608Z,94.50
2018-05-01T07:34:02.924Z,93.80
2018-05-01T07:36:42.260Z,94.00
2018-05-01T07:39:21.543Z,93.50
2018-05-01T07:42:00.872Z,94.10
2018-05-01T07:44:40.159Z,94.00
2018-05-01T07:47:20.219Z,93.40
2018-05-01T07:49:59.602Z,93.40
2018-05-01T07:52:38.863Z,94.30
2018-05-01T07:55:18.120Z,94.30
2018-05-01T07:57:58.297Z,93.80
2018-05-01T08:00:37.758Z,93.70
2018-05-01T08:03:17.071Z,94.20
2018-05-01T08:05:56.503Z,94.50
2018-05-01T08:08:35.840Z,95.30
2018-05-01T08:11:15.224Z,94.30
2018-05-01T08:13:54.528Z,93.70
2018-05-01T08:16:33.960Z,93.40
2018-05-01T08:19:13.317Z,91.50
2018-05-01T08:21:52.601Z,91.60
2018-05-01T08:24:31.927Z,90.70
2018-05-01T08:27:11.279Z,90.70
2018-05-01T08:29:50.725Z,92.00
2018-05-01T08:32:30.629Z,91.50
2018-05-01T08:35:09.911Z,91.60
2018-05-01T08:37:49.367Z,91.70
2018-05-01T08:40:28.617Z,91.60
2018-05-01T08:43:07.997Z,91.90
2018-05-01T08:45:47.303Z,93.50
2018-05-01T08:48:26.696Z,93.00
2018-05-01T08:51:05.943Z,91.60
2018-05-01T08:53:45.307Z,91.80
2018-05-01T08:56:24.594Z,91.60
2018-05-01T08:59:03.994Z,92.60
2018-05-01T09:01:43.268Z,92.20
2018-05-01T09:04:22.676Z,91.80
2018-05-01T09:07:01.960Z,92.40
2018-05-01T09:09:41.368Z,92.10
2018-05-01T09:12:21.536Z,90.30
2018-05-01T09:15:00.739Z,90.30
2018-05-01T09:17:41.456Z,91.00
2018-05-01T09:20:20.723Z,91.00
2018-05-01T09:23:00.050Z,90.90
2018-05-01T09:25:39.446Z,91.10
2018-05-01T09:28:18.622Z,90.80
2018-05-01T09:30:58.079Z,90.00
2018-05-01T09:33:37.408Z,91.60
2018-05-01T09:36:16.844Z,90.70
2018-05-01T09:38:56.096Z,86.00
2018-05-01T09:41:36.232Z,88.40
2018-05-01T09:44:15.682Z,88.90
2018-05-01T09:46:55.045Z,90.20
2018-05-01T09:49:34.467Z,89.50
2018-05-01T09:52:15.599Z,89.20
2018-05-01T09:54:43.171Z,89.20
2018-05-01T09:57:10.729Z,87.50
2018-05-01T09:59:38.296Z,88.80
2018-05-01T10:02:05.828Z,91.00
2018-05-01T10:04:33.595Z,88.00
2018-05-01T10:07:01.131Z,88.40
2018-05-01T10:09:28.663Z,89.60
2018-05-01T10:11:56.963Z,87.90
2018-05-01T10:14:24.514Z,87.90
2018-05-01T10:16:52.056Z,88.40
2018-05-01T10:19:20.373Z,87.80
2018-05-01T10:21:47.933Z,87.90
2018-05-01T10:24:16.036Z,90.20
2018-05-01T10:26:43.595Z,91.10
2018-05-01T10:29:11.158Z,91.40
2018-05-01T10:31:38.702Z,85.70
2018-05-01T10:34:06.273Z,84.90
2018-05-01T10:36:33.803Z,84.60
2018-05-01T10:39:01.439Z,83.70
2018-05-01T10:41:28.907Z,82.20
2018-05-01T10:43:56.466Z,78.80
2018-05-01T10:46:24.003Z,84.50
2018-05-01T10:48:51.593Z,88.00
2018-05-01T10:51:19.114Z,90.60
2018-05-01T10:53:47.423Z,84.60
2018-05-01T10:56:14.949Z,84.60
2018-05-01T10:58:42.481Z,85.70
2018-05-01T11:01:10.031Z,86.20
2018-05-01T11:03:39.092Z,79.70
2018-05-01T11:06:06.655Z,79.70
2018-05-01T11:08:34.206Z,84.20
2018-05-01T11:11:01.751Z,85.20
2018-05-01T11:13:29.295Z,80.50
2018-05-01T11:15:56.949Z,75.80
2018-05-01T11:18:25.274Z,79.60
2018-05-01T11:20:52.855Z,79.70
2018-05-01T11:23:20.430Z,78.10
2018-05-01T11:25:47.962Z,76.90
2018-05-01T11:28:15.511Z,80.40
2018-05-01T11:30:43.081Z,84.90
2018-05-01T11:33:10.653Z,80.20
2018-05-01T11:35:38.980Z,76.90
2018-05-01T11:38:07.649Z,76.70
2018-05-01T11:40:35.196Z,76.90
2018-05-01T11:43:03.496Z,78.40
2018-05-01T11:45:31.042Z,78.40
2018-05-01T11:47:58.612Z,77.90
2018-05-01T11:50:26.162Z,78.20
2018-05-01T11:52:53.716Z,75.50
2018-05-01T11:55:22.044Z,74.70
2018-05-01T11:57:49.605Z,74.40
2018-05-01T12:00:17.298Z,76.90
2018-05-01T12:02:45.033Z,70.80
2018-05-01T12:05:12.591Z,70.60
2018-05-01T12:07:40.207Z,71.60
2018-05-01T12:10:08.497Z,72.60
2018-05-01T12:12:36.048Z,72.50
2018-05-01T12:15:03.739Z,72.60
2018-05-01T12:17:32.162Z,75.30
2018-05-01T12:20:00.457Z,76.60
2018-05-01T12:22:27.976Z,76.10
2018-05-01T12:24:55.621Z,70.50
2018-05-01T12:27:23.265Z,73.40
2018-05-01T12:29:50.934Z,70.00
2018-05-01T12:32:18.506Z,70.50
2018-05-01T12:34:46.056Z,75.80
2018-05-01T12:37:13.689Z,71.60
2018-05-01T12:39:41.238Z,71.80
2018-05-01T12:42:08.781Z,75.20
2018-05-01T12:44:36.315Z,70.30
2018-05-01T12:47:03.842Z,71.10
2018-05-01T12:49:31.391Z,72.80
2018-05-01T12:51:58.956Z,68.20
2018-05-01T12:54:27.292Z,68.80
2018-05-01T12:56:54.851Z,68.90
2018-05-01T12:59:23.178Z,69.00
2018-05-01T13:01:51.354Z,69.60
2018-05-01T13:04:18.896Z,70.90
2018-05-01T13:06:47.196Z,68.50
2018-05-01T13:09:14.715Z,68.50
2018-05-01T13:11:42.270Z,68.30
2018-05-01T13:14:09.847Z,64.90
2018-05-01T13:16:37.388Z,65.90
2018-05-01T13:19:04.939Z,76.60
2018-05-01T13:21:32.474Z,69.60
2018-05-01T13:24:00.045Z,67.70
2018-05-01T13:26:29.108Z,67.80
2018-05-01T13:28:56.678Z,67.80
2018-05-01T13:31:24.228Z,70.10
2018-05-01T13:33:51.769Z,64.80
2018-05-01T13:36:19.299Z,71.20
2018-05-01T13:38:46.862Z,68.30
2018-05-01T13:41:14.442Z,67.50
2018-05-01T13:43:41.989Z,67.60
2018-05-01T13:46:09.545Z,70.10
2018-05-01T13:48:37.087Z,63.50
2018-05-01T13:51:04.632Z,66.00
2018-05-01T13:53:32.925Z,65.70
2018-05-01T13:56:01.208Z,66.60
2018-05-01T13:58:28.763Z,66.60
2018-05-01T14:00:56.290Z,67.00
2018-05-01T14:03:23.831Z,69.70
2018-05-01T14:05:51.383Z,73.20
2018-05-01T14:08:18.930Z,65.60
2018-05-01T14:10:46.472Z,67.20
2018-05-01T14:13:14.014Z,67.00
2018-05-01T14:15:42.298Z,67.80
2018-05-01T14:18:09.852Z,67.90
2018-05-01T14:20:37.401Z,63.80
2018-05-01T14:23:05.705Z,63.50
2018-05-01T14:25:33.317Z,63.50
2018-05-01T14:28:00.824Z,65.90
2018-05-01T14:30:28.377Z,71.30
2018-05-01T14:32:55.927Z,66.70
2018-05-01T14:35:23.472Z,65.00
2018-05-01T14:37:51.020Z,65.50
2018-05-01T14:40:19.349Z,67.80
2018-05-01T14:42:46.876Z,67.60
2018-05-01T14:45:14.446Z,68.30
2018-05-01T14:47:41.984Z,69.70
2018-05-01T14:50:09.514Z,68.10
2018-05-01T14:52:37.045Z,65.60
2018-05-01T14:55:04.593Z,66.90
2018-05-01T14:57:32.268Z,67.30
2018-05-01T14:59:59.986Z,69.70
2018-05-01T15:02:27.664Z,70.00
2018-05-01T15:04:55.456Z,66.30
2018-05-01T15:07:23.021Z,60.40
2018-05-01T15:09:50.596Z,70.10
2018-05-01T15:12:18.153Z,68.90
2018-05-01T15:14:45.674Z,63.20
2018-05-01T15:17:13.210Z,62.40
2018-05-01T15:19:41.520Z,68.60
2018-05-01T15:22:09.067Z,68.30
2018-05-01T15:24:36.651Z,65.80
2018-05-01T15:27:04.235Z,68.80
2018-05-01T15:29:32.316Z,64.80
2018-05-01T15:31:59.867Z,62.80
2018-05-01T15:34:28.171Z,63.50
2018-05-01T15:36:55.731Z,63.40
2018-05-01T15:39:24.015Z,67.90
2018-05-01T15:41:52.299Z,65.90
2018-05-01T15:44:19.818Z,65.80
2018-05-01T15:46:47.342Z,64.50
2018-05-01T15:49:14.857Z,66.40
2018-05-01T15:51:43.215Z,64.00
2018-05-01T15:54:11.431Z,65.90
2018-05-01T15:56:38.967Z,65.90
2018-05-01T15:59:07.311Z,61.40
2018-05-01T16:01:34.845Z,61.40
2018-05-01T16:04:02.350Z,65.40
2018-05-01T16:06:29.889Z,68.50
2018-05-01T16:08:57.399Z,66.20
2018-05-01T16:11:24.964Z,64.00
2018-05-01T16:13:52.575Z,65.60
2018-05-01T16:16:20.069Z,62.90
2018-05-01T16:18:47.598Z,62.90
2018-05-01T16:21:15.124Z,65.80
2018-05-01T16:23:42.671Z,63.70
2018-05-01T16:26:10.195Z,65.10
2018-05-01T16:28:38.505Z,61.60
2018-05-01T16:31:06.026Z,61.60
2018-05-01T16:33:33.583Z,61.80
2018-05-01T16:36:01.959Z,62.90
2018-05-01T16:38:29.462Z,63.00
2018-05-01T16:40:57.020Z,63.00
2018-05-01T16:43:24.559Z,64.90
2018-05-01T16:45:52.102Z,66.50
2018-05-01T16:48:20.385Z,66.30
2018-05-01T16:50:48.913Z,65.10
2018-05-01T16:53:17.320Z,65.80
2018-05-01T16:55:45.645Z,65.30
2018-05-01T16:58:13.237Z,65.20
2018-05-01T17:00:40.784Z,65.40
2018-05-01T17:03:08.352Z,66.70
2018-05-01T17:05:35.883Z,65.00
2018-05-01T17:08:03.408Z,68.90
2018-05-01T17:10:30.980Z,65.70
2018-05-01T17:12:58.571Z,65.10
2018-05-01T17:15:26.096Z,64.50
2018-05-01T17:17:53.655Z,67.40
2018-05-01T17:20:21.223Z,66.30
2018-05-01T17:22:48.785Z,65.10
2018-05-01T17:25:16.337Z,65.00
2018-05-01T17:27:43.915Z,65.20
2018-05-01T17:30:11.497Z,67.70
2018-05-01T17:32:39.053Z,68.10
2018-05-01T17:35:06.617Z,69.40
2018-05-01T17:37:34.212Z,67.60
2018-05-01T17:40:02.530Z,66.20
2018-05-01T17:42:30.065Z,66.20
2018-05-01T17:44:57.637Z,65.70
2018-05-01T17:47:25.222Z,68.10
2018-05-01T17:49:52.797Z,65.10
2018-05-01T17:52:20.334Z,67.70
2018-05-01T17:54:47.880Z,69.00
2018-05-01T17:57:15.458Z,69.90
2018-05-01T17:59:43.016Z,69.00
2018-05-01T18:02:10.605Z,70.30
2018-05-01T18:04:38.146Z,69.90
2018-05-01T18:07:05.716Z,70.00
2018-05-01T18:09:33.238Z,70.80
2018-05-01T18:12:00.777Z,70.70
2018-05-01T18:14:28.357Z,72.10
2018-05-01T18:16:55.947Z,71.10
2018-05-01T18:19:23.544Z,72.70
2018-05-01T18:21:51.080Z,80.10
2018-05-01T18:24:18.643Z,74.20
2018-05-01T18:26:46.217Z,77.50
2018-05-01T18:29:14.571Z,82.80
2018-05-01T18:31:42.175Z,83.00
2018-05-01T18:34:09.715Z,84.10
2018-05-01T18:36:37.262Z,86.80
2018-05-01T18:39:05.585Z,84.60
2018-05-01T18:41:33.168Z,84.60
2018-05-01T18:44:00.691Z,85.70
2018-05-01T18:46:28.249Z,88.50
2018-05-01T18:48:55.810Z,86.10
2018-05-01T18:51:23.381Z,84.40
2018-05-01T18:53:50.949Z,86.50
2018-05-01T18:56:18.531Z,90.20
2018-05-01T18:58:46.095Z,89.60
2018-05-01T19:01:15.318Z,90.30
2018-05-01T19:03:43.640Z,90.30
2018-05-01T19:06:11.192Z,90.20
2018-05-01T19:08:38.739Z,91.50
2018-05-01T19:11:07.036Z,89.00
2018-05-01T19:13:34.594Z,88.90
2018-05-01T19:16:02.141Z,88.50
2018-05-01T19:18:29.715Z,90.40
2018-05-01T19:20:57.299Z,90.30
2018-05-01T19:23:24.838Z,91.70
2018-05-01T19:25:52.398Z,90.30
2018-05-01T19:28:19.933Z,91.50
2018-05-01T19:30:47.500Z,92.10
2018-05-01T19:33:15.032Z,94.80
2018-05-01T19:35:43.350Z,92.40
2018-05-01T19:38:10.898Z,92.40
2018-05-01T19:40:38.423Z,92.00
2018-05-01T19:43:07.319Z,94.00
2018-05-01T19:45:34.845Z,94.00
2018-05-01T19:48:02.355Z,92.30
2018-05-01T19:50:29.898Z,92.50
2018-05-01T19:52:57.462Z,94.30
2018-05-01T19:55:25.015Z,93.40
2018-05-01T19:57:52.591Z,92.70
2018-05-01T20:00:20.160Z,93.20
2018-05-01T20:02:47.670Z,93.10
2018-05-01T20:05:15.954Z,94.80
2018-05-01T20:07:43.560Z,94.80
2018-05-01T20:10:11.095Z,95.00
2018-05-01T20:12:38.648Z,97.70
2018-05-01T20:15:06.159Z,99.10
2018-05-01T20:17:33.765Z,98.30
2018-05-01T20:20:01.379Z,98.80
2018-05-01T20:22:28.820Z,98.30
2018-05-01T20:24:56.364Z,99.70
2018-05-01T20:27:23.883Z,99.10
2018-05-01T20:29:51.403Z,99.70
2018-05-01T20:32:18.943Z,97.90
2018-05-01T20:34:46.491Z,99.90
2018-05-01T20:37:14.090Z,98.60
2018-05-01T20:39:41.569Z,99.90
2018-05-01T20:42:09.097Z,99.30
2018-05-01T20:44:36.631Z,98.80
2018-05-01T20:47:04.174Z,99.40
2018-05-01T20:49:31.731Z,98.50
2018-05-01T20:51:59.256Z,99.00
2018-05-01T20:54:26.765Z,99.30
2018-05-01T20:56:54.282Z,98.80
2018-05-01T20:59:22.591Z,99.90
2018-05-01T21:01:50.216Z,99.90
2018-05-01T21:04:17.706Z,99.90
2018-05-01T21:06:45.252Z,99.90
2018-05-01T21:09:12.889Z,99.90
2018-05-01T21:11:40.400Z,99.90
2018-05-01T21:14:07.913Z,99.90
2018-05-01T21:16:36.211Z,99.90
2018-05-01T21:19:03.731Z,99.90
2018-05-01T21:21:31.237Z,99.90
2018-05-01T21:23:58.743Z,99.90
2018-05-01T21:26:26.245Z,99.90
2018-05-01T21:28:53.781Z,99.90
2018-05-01T21:31:21.347Z,99.90
2018-05-01T21:33:48.870Z,99.90
2018-05-01T21:36:17.986Z,99.90
2018-05-01T21:38:45.453Z,99.90
2018-05-01T21:41:12.987Z,99.90
2018-05-01T21:43:40.515Z,99.90
2018-05-01T21:46:08.019Z,99.90
2018-05-01T21:48:35.560Z,99.90
2018-05-01T21:51:03.085Z,99.90
2018-05-01T21:53:30.589Z,99.90
2018-05-01T21:55:58.098Z,99.90
2018-05-01T21:58:25.629Z,99.90
2018-05-01T22:00:53.226Z,99.90
2018-05-01T22:03:20.762Z,99.90
2018-05-01T22:05:48.313Z,99.90
2018-05-01T22:08:15.825Z,99.90
2018-05-01T22:10:43.335Z,99.90
2018-05-01T22:13:10.839Z,99.90
2018-05-01T22:15:38.556Z,99.90
2018-05-01T22:18:06.076Z,99.90
2018-05-01T22:20:34.380Z,99.90
2018-05-01T22:23:01.896Z,99.90
2018-05-01T22:25:29.435Z,99.90
2018-05-01T22:27:56.947Z,99.90
2018-05-01T22:30:25.219Z,99.90
2018-05-01T22:32:53.520Z,99.90
2018-05-01T22:35:21.296Z,99.90
2018-05-01T22:37:48.838Z,99.90
2018-05-01T22:40:16.366Z,99.90
2018-05-01T22:42:43.900Z,99.90
2018-05-01T22:45:11.422Z,99.90
2018-05-01T22:47:38.955Z,99.90
2018-05-01T22:50:07.267Z,99.90
2018-05-01T22:52:34.782Z,99.90
2018-05-01T22:55:03.081Z,99.90
2018-05-01T22:57:30.618Z,99.90
2018-05-01T22:59:58.132Z,99.90
2018-05-01T23:02:25.644Z,99.90
2018-05-01T23:04:53.148Z,99.90
2018-05-01T23:07:22.177Z,99.90
2018-05-01T23:09:50.482Z,99.90
2018-05-01T23:12:18.004Z,99.90
2018-05-01T23:14:46.307Z,99.90
2018-05-01T23:17:13.847Z,99.90
2018-05-01T23:19:42.118Z,99.90
2018-05-01T23:22:14.113Z,99.90
2018-05-01T23:24:41.627Z,99.90
2018-05-01T23:27:09.155Z,99.90
2018-05-01T23:29:36.694Z,99.90
2018-05-01T23:32:04.227Z,99.90
2018-05-01T23:34:31.767Z,99.90
2018-05-01T23:37:00.047Z,99.90
2018-05-01T23:39:28.352Z,99.90
2018-05-01T23:41:55.885Z,99.90
2018-05-01T23:44:23.448Z,99.90
2018-05-01T23:46:51.759Z,99.90
2018-05-01T23:49:19.296Z,99.90
2018-05-01T23:51:46.827Z,99.90
2018-05-01T23:54:15.105Z,99.90
2018-05-01T23:56:42.640Z,99.90
2018-05-01T23:59:10.182Z,99.90
